Weather reports worldwide

Advertisment
Siguenza, Spain (8150): temperature & dewpoint: 09.10.2019 20:00:00 - 15.10.2019 20:00:00 (CEST)Siguenza, Spain (8150): wind speed & gusts: 09.10.2019 20:00:00 - 15.10.2019 20:00:00 (CEST)Siguenza, Spain (8150): wind direction: 09.10.2019 20:00:00 - 15.10.2019 20:00:00 (CEST)Siguenza, Spain (8150): visibility: 09.10.2019 20:00:00 - 15.10.2019 20:00:00 (CEST)Siguenza, Spain (8150): sunshine duration: 09.10.2019 20:00:00 - 15.10.2019 20:00:00 (CEST)Siguenza, Spain (8150): precipitation: 09.10.2019 20:00:00 - 15.10.2019 20:00:00 (CEST)
Date & Time tt [°C] td [°C] ff [km/h] ff [kn] fx [km/h] fx [kn] dd vv [km] sd [min] rr [mm]
15.10.2019 20:00:00 - - - - - - - - - -
15.10.2019 19:00:00 12,1 1,9 7 4 28 15 SSW 20 15 0,0
15.10.2019 18:00:00 13,6 2,3 9 5 27 14 SW 20 7 0,0
15.10.2019 17:00:00 14,7 2,3 9 5 24 13 SW 20 16 0,0
15.10.2019 16:00:00 15,0 1,1 11 6 25 14 SSW 20 17 0,0
15.10.2019 15:00:00 14,9 1,7 7 4 19 11 WSW 20 60 0,0
15.10.2019 14:00:00 13,5 1,5 8 4 24 13 WNW 20 59 -
15.10.2019 13:00:00 12,5 2,9 6 4 24 13 W 20 1 0,0
15.10.2019 12:00:00 9,9 3,2 7 4 23 12 SW 20 13 0,0
15.10.2019 11:00:00 8,3 2,7 6 4 27 15 W 20 0 0,0
15.10.2019 10:00:00 5,7 2,7 5 3 14 8 WSW 20 0 0,0
15.10.2019 09:00:00 2,4 1,7 5 3 10 5 SW 20 0 0,0
15.10.2019 08:00:00 1,8 0,9 4 2 7 4 SSW 20 0 -
15.10.2019 07:00:00 2,7 1,7 5 3 10 5 WSW 20 0 0,0
15.10.2019 06:00:00 3,9 1,9 2 1 14 7 E 20 0 0,0
15.10.2019 05:00:00 5,0 2,5 5 3 12 6 WSW 20 0 0,0
15.10.2019 04:00:00 5,2 2,9 5 3 11 6 SW 20 0 0,0
15.10.2019 03:00:00 4,9 3,0 6 3 14 8 SSW 20 0 0,0
15.10.2019 02:00:00 5,9 3,6 5 3 15 8 SSW 20 0 -
15.10.2019 01:00:00 6,3 4,5 4 2 18 10 W 20 0 0,0
15.10.2019 00:00:00 6,7 5,6 5 3 12 7 SSW 20 0 0,0
14.10.2019 23:00:00 6,9 5,3 1 1 10 6 W 20 0 0,0
14.10.2019 22:00:00 7,6 6,1 1 1 13 7 WSW 20 0 0,2
14.10.2019 21:00:00 7,8 5,9 6 4 24 13 SSW 20 0 1,4
14.10.2019 20:00:00 9,2 5,9 8 4 34 18 WSW 7 0 -
14.10.2019 19:00:00 14,7 5,0 11 6 47 26 SW 20 8 0,0
14.10.2019 18:00:00 16,5 3,9 18 10 45 24 SW 20 9 0,0
14.10.2019 17:00:00 16,8 5,8 21 12 48 26 SSW 20 22 0,0
14.10.2019 16:00:00 17,3 6,5 22 12 45 25 SSW 20 7 0,0
14.10.2019 15:00:00 16,1 10,2 16 9 45 24 SW 20 13 0,0
14.10.2019 14:00:00 17,0 10,6 26 14 47 25 SSW 20 26 -
14.10.2019 13:00:00 15,6 10,8 22 12 44 24 SSW 20 0 0,2
14.10.2019 12:00:00 17,1 10,3 29 16 51 28 S 17 0 0,0
14.10.2019 11:00:00 16,2 10,0 18 10 45 24 SSW 20 0 0,0
14.10.2019 10:00:00 16,4 10,5 22 12 40 21 S 20 0 0,0
14.10.2019 09:00:00 15,3 11,4 16 9 34 19 SSW 20 0 0,0
14.10.2019 08:00:00 9,5 8,4 4 2 9 5 NNW 20 0 -
14.10.2019 07:00:00 9,9 8,1 1 1 6 3 NNE 20 0 0,0
14.10.2019 06:00:00 10,5 7,7 1 1 7 4 E 20 0 0,0
14.10.2019 05:00:00 10,5 6,8 4 2 9 5 NE 20 0 0,0
14.10.2019 04:00:00 10,2 6,1 2 1 13 7 W 20 0 0,0
14.10.2019 03:00:00 9,2 6,7 3 2 14 8 NNE 20 0 0,0
14.10.2019 02:00:00 8,4 6,4 4 2 14 8 NE 20 0 -
14.10.2019 01:00:00 8,1 6,2 3 2 7 4 ENE 20 0 0,0
14.10.2019 00:00:00 8,8 6,5 2 1 5 3 NNE 20 0 0,0
13.10.2019 23:00:00 9,7 6,8 2 1 6 4 NE 20 0 0,0
13.10.2019 22:00:00 11,4 7,3 2 1 5 3 ENE 20 0 0,0
13.10.2019 21:00:00 13,9 7,8 3 1 6 4 NNE 20 0 0,0
13.10.2019 20:00:00 17,5 8,1 1 1 22 12 SW 20 0 -
13.10.2019 19:00:00 20,7 7,0 9 5 29 15 SSW 20 31 0,0
13.10.2019 18:00:00 22,0 7,0 16 8 37 20 SSW 20 10 0,0
13.10.2019 17:00:00 22,6 5,1 15 8 36 19 SW 20 17 0,0
13.10.2019 16:00:00 22,1 8,3 19 10 39 21 SSW 20 23 0,0
13.10.2019 15:00:00 21,2 10,6 17 9 35 19 SSW 20 48 0,0
13.10.2019 14:00:00 20,9 11,8 16 8 39 21 SSW 20 36 -
13.10.2019 13:00:00 19,5 12,2 16 9 35 19 SSW 19 11 0,0
13.10.2019 12:00:00 18,0 12,2 21 11 36 19 SSW 20 6 0,0
13.10.2019 11:00:00 16,8 13,4 16 8 31 17 SSW 20 0 0,0
13.10.2019 10:00:00 14,7 13,0 14 8 27 15 SSW 20 0 0,0
13.10.2019 09:00:00 11,6 11,1 3 2 8 5 SSW 20 0 0,0
13.10.2019 08:00:00 7,9 7,1 5 3 9 5 N 20 0 -
13.10.2019 07:00:00 8,3 7,4 0 0 6 4 N 17 0 0,0
13.10.2019 06:00:00 9,0 8,0 2 1 7 4 E 20 0 0,0
13.10.2019 05:00:00 10,0 8,7 4 2 10 5 NE 20 0 0,0
13.10.2019 04:00:00 12,0 9,7 2 1 17 9 SSW 20 0 0,0
13.10.2019 03:00:00 12,8 10,3 5 3 19 10 E 20 0 0,0
13.10.2019 02:00:00 12,6 11,2 3 2 11 6 SSE 20 0 -
13.10.2019 01:00:00 13,2 11,8 2 1 9 5 S 20 0 1,4
13.10.2019 00:00:00 13,8 11,1 8 5 21 12 SSW 4,8 0 1,2
12.10.2019 23:00:00 15,1 10,3 8 4 53 29 SW 20 0 0,2
12.10.2019 22:00:00 14,5 6,1 2 1 6 3 SE 20 0 0,0
12.10.2019 21:00:00 16,6 7,3 3 2 6 3 NE 20 0 0,0
12.10.2019 20:00:00 20,6 7,6 4 2 20 11 SSW 20 0 -
12.10.2019 19:00:00 22,3 7,3 11 6 27 14 S 20 5 0,0
12.10.2019 18:00:00 - - - - - - - - - -
12.10.2019 17:00:00 24,3 6,1 14 8 36 20 SSW 20 16 0,0
12.10.2019 16:00:00 24,4 6,7 16 8 31 17 SSW 20 19 0,0
12.10.2019 15:00:00 23,7 6,8 19 10 32 18 SSW 20 46 0,0
12.10.2019 14:00:00 25,3 7,0 18 10 33 18 SSW 20 39 -
12.10.2019 13:00:00 22,6 8,3 13 7 31 17 SSW 20 6 0,0
12.10.2019 12:00:00 20,6 10,6 8 5 21 11 S 20 0 0,0
12.10.2019 11:00:00 17,6 11,9 7 4 12 7 SSW 20 0 0,0
12.10.2019 10:00:00 15,4 11,8 3 2 8 5 S 20 0 0,0
12.10.2019 09:00:00 13,1 10,3 1 1 5 3 NNE 20 0 0,0
12.10.2019 08:00:00 13,3 10,5 3 2 6 3 NNE 20 0 -
12.10.2019 07:00:00 13,6 10,0 2 1 5 3 SE 20 0 0,0
12.10.2019 06:00:00 14,3 10,8 3 2 8 4 SSW 20 0 0,0
12.10.2019 05:00:00 15,0 10,2 2 1 5 3 NW 20 0 0,0
12.10.2019 04:00:00 15,9 10,0 3 2 12 7 SW 20 0 0,0
12.10.2019 03:00:00 15,1 8,8 3 2 7 4 S 20 0 0,0
12.10.2019 02:00:00 16,2 8,0 2 1 5 3 SSW 20 0 -
12.10.2019 01:00:00 17,8 8,1 2 1 9 5 NE 20 0 0,0
12.10.2019 00:00:00 19,8 7,1 6 4 23 13 S 20 0 0,0
11.10.2019 23:00:00 20,0 8,0 9 5 25 14 SSW 20 0 0,0
11.10.2019 22:00:00 19,2 8,8 3 2 13 7 S 20 0 0,0
11.10.2019 21:00:00 17,4 9,8 0 0 5 3 N 20 0 0,0
11.10.2019 20:00:00 19,9 10,0 1 1 12 7 NNW 20 0 -
11.10.2019 19:00:00 23,2 9,6 8 4 27 14 SSW 20 8 0,0
11.10.2019 18:00:00 24,6 8,5 14 7 34 18 SSW 20 6 0,0
11.10.2019 17:00:00 25,1 10,5 16 8 30 16 SSW 20 3 0,0
11.10.2019 16:00:00 25,8 11,2 16 9 28 15 SSW 20 24 0,0
11.10.2019 15:00:00 25,3 12,2 13 7 25 13 S 20 60 0,0
11.10.2019 14:00:00 24,1 12,7 9 5 23 13 SW 20 58 -
11.10.2019 13:00:00 22,2 13,3 10 5 19 10 SW 20 6 0,0
11.10.2019 12:00:00 19,1 13,3 7 4 19 10 SW 20 0 0,0
11.10.2019 11:00:00 16,9 13,1 10 5 18 10 S 20 2 0,0
11.10.2019 10:00:00 10,6 9,3 1 1 6 3 ENE 20 0 0,0
11.10.2019 09:00:00 6,8 5,9 4 2 6 3 NE 14 0 0,0
11.10.2019 08:00:00 5,7 4,5 2 1 4 2 ENE 20 0 -
11.10.2019 07:00:00 6,0 4,6 0 0 4 2 N 20 0 0,0
11.10.2019 06:00:00 6,4 4,8 1 1 6 3 SW 20 0 0,0
11.10.2019 05:00:00 6,9 5,5 4 2 6 4 NE 20 0 0,0
11.10.2019 04:00:00 7,2 5,5 2 1 6 3 N 20 0 0,0
11.10.2019 03:00:00 8,1 6,4 2 1 6 3 N 20 0 0,0
11.10.2019 02:00:00 8,8 6,7 1 1 6 3 NNE 20 0 -
11.10.2019 01:00:00 9,6 6,8 3 1 8 4 ENE 20 0 0,0
11.10.2019 00:00:00 10,8 7,3 4 2 9 5 NNE 20 0 0,0
10.10.2019 23:00:00 11,3 7,0 4 2 9 5 E 20 0 0,0
10.10.2019 22:00:00 12,9 8,1 4 2 8 5 NE 20 0 0,0
10.10.2019 21:00:00 15,1 8,8 4 2 7 4 NNE 20 0 0,0
10.10.2019 20:00:00 19,2 9,4 2 1 11 6 SSW 20 0 -
10.10.2019 19:00:00 22,5 9,7 5 3 18 10 SW 20 13 0,0
10.10.2019 18:00:00 23,7 9,3 9 5 22 12 SSW 20 0 0,0
10.10.2019 17:00:00 24,3 9,4 9 5 22 12 SSW 20 4 0,0
10.10.2019 16:00:00 24,0 11,0 8 5 22 12 SW 20 27 0,0
10.10.2019 15:00:00 22,7 11,8 9 5 23 13 SSW 20 59 0,0
10.10.2019 14:00:00 - - - - - - - - - -
10.10.2019 13:00:00 - - - - - - - - - -
10.10.2019 12:00:00 14,1 8,1 5 3 13 7 N 20 0 0,0
10.10.2019 11:00:00 11,2 7,0 8 4 16 8 N 20 0 0,0
10.10.2019 10:00:00 10,2 6,1 7 4 15 8 NE 20 0 0,0
10.10.2019 09:00:00 7,5 5,5 2 1 8 4 NE 20 0 0,0
10.10.2019 08:00:00 6,9 4,6 5 3 10 5 NNE 20 0 -
10.10.2019 07:00:00 8,2 5,5 5 3 10 6 ENE 20 0 0,0
10.10.2019 06:00:00 8,0 5,3 3 2 16 8 E 20 0 0,0
10.10.2019 05:00:00 9,1 5,8 7 4 16 9 NE 20 0 0,0
10.10.2019 04:00:00 9,7 6,1 9 5 18 10 NNE 20 0 0,0
10.10.2019 03:00:00 10,2 6,1 5 3 21 11 ENE 20 0 0,0
10.10.2019 02:00:00 10,5 6,4 10 6 19 10 NNE 20 0 -
10.10.2019 01:00:00 11,2 6,7 12 7 21 12 NNE 20 0 0,0
10.10.2019 00:00:00 11,9 6,8 8 4 18 10 NE 20 0 0,0
09.10.2019 23:00:00 12,8 7,0 9 5 19 10 NE 20 0 0,0
09.10.2019 22:00:00 14,3 7,8 8 4 23 12 NE 20 0 0,0
09.10.2019 21:00:00 16,6 8,8 8 5 21 11 NE 20 0 0,0
09.10.2019 20:00:00 18,6 7,0 3 2 16 8 ENE 20 0 -

tt = temperature
td = dewpoint
ff = wind speed
fx = gusts
dd = wind direction
vv = visibility
sd = sunshine duration
rr = precipitation

Next stations